Time;durP1;ratioP1;P1;durP2;ratioP2;P2;SDS_P1;SDS_P2;PMS_P1;PMS_P2;Temp;Humidity;BMP_temperature;BMP_pressure;BME280_temperature;BME280_humidity;BME280_pressure;Samples;Min_cycle;Max_cycle;Signal;HPM_P1;HPM_P2
2023/10/08 00:00:45;;;;;;;27.58;6.43;;;;;;;17.37;100.00;102380.09;6103985;19;20003;-77
2023/10/08 00:02:52;;;;;;;17.15;5.93;;;;;;;17.40;100.00;102361.34;6106752;19;20517;-79
2023/10/08 00:05:05;;;;;;;13.70;5.22;;;;;;;17.37;100.00;102378.28;6109208;19;20553;-80
2023/10/08 00:07:10;;;;;;;;;;;;;;;17.38;100.00;102377.38;6104817;19;20027;-79
2023/10/08 00:09:36;;;;;;;20.25;6.10;;;;;;;17.37;100.00;102372.13;6107324;19;19932;-81
2023/10/08 00:11:43;;;;;;;17.40;5.75;;;;;;;17.42;100.00;102373.63;6105031;19;20002;-77
2023/10/08 00:13:56;;;;;;;18.52;6.32;;;;;;;17.38;100.00;102374.72;6102366;19;20013;-81
2023/10/08 00:16:16;;;;;;;20.45;6.40;;;;;;;17.25;100.00;102376.19;6098346;19;20021;-75
2023/10/08 00:18:34;;;;;;;21.75;5.53;;;;;;;17.26;100.00;102375.25;6092600;19;20006;-76
2023/10/08 00:20:54;;;;;;;18.65;5.70;;;;;;;17.16;100.00;102382.75;6099103;19;20035;-78
2023/10/08 00:23:07;;;;;;;17.35;6.22;;;;;;;17.21;100.00;102379.91;6107057;19;20007;-79
2023/10/08 00:25:16;;;;;;;12.98;5.40;;;;;;;17.11;100.00;102369.69;6109960;19;20669;-79
2023/10/08 00:27:24;;;;;;;14.82;5.63;;;;;;;17.02;100.00;102356.78;6107955;19;20016;-79
2023/10/08 00:29:31;;;;;;;21.70;6.22;;;;;;;17.08;100.00;102361.84;6108015;19;20027;-79
2023/10/08 00:31:41;;;;;;;19.40;5.75;;;;;;;17.02;100.00;102358.59;6097218;19;20011;-79
2023/10/08 00:33:51;;;;;;;18.60;6.20;;;;;;;16.92;100.00;102354.59;6103232;19;20389;-79
2023/10/08 00:36:17;;;;;;;21.25;6.82;;;;;;;16.93;100.00;102351.91;6100381;19;20378;-75
2023/10/08 00:38:32;;;;;;;16.55;6.43;;;;;;;16.88;100.00;102343.25;6098683;19;20021;-75
2023/10/08 00:40:55;;;;;;;18.80;6.53;;;;;;;16.86;100.00;102335.34;6088589;19;20378;-75
2023/10/08 00:43:12;;;;;;;17.13;6.38;;;;;;;16.83;100.00;102335.50;6080436;19;20313;-75
2023/10/08 00:45:24;;;;;;;17.35;5.85;;;;;;;16.82;100.00;102322.25;6099292;19;20003;-75
2023/10/08 00:47:56;;;;;;;25.05;8.38;;;;;;;16.81;100.00;102326.72;6084521;19;20010;-75
2023/10/08 00:50:20;;;;;;;;;;;;;;;16.78;100.00;102331.31;6095789;19;20007;-75
2023/10/08 00:52:40;;;;;;;21.13;5.63;;;;;;;16.79;100.00;102320.59;6094685;19;20536;-75
2023/10/08 00:54:58;;;;;;;17.88;6.78;;;;;;;16.81;100.00;102325.88;6107782;19;20011;-79
2023/10/08 00:57:07;;;;;;;19.63;6.32;;;;;;;16.82;100.00;102332.88;6105660;19;20636;-79
2023/10/08 00:59:20;;;;;;;19.92;6.75;;;;;;;16.76;100.00;102333.13;6104826;19;20031;-76
2023/10/08 01:01:26;;;;;;;19.85;6.07;;;;;;;16.72;100.00;102336.81;6086696;19;20357;-76
2023/10/08 01:03:44;;;;;;;17.23;6.75;;;;;;;16.68;100.00;102347.56;6107713;19;20014;-79
2023/10/08 01:05:51;;;;;;;19.10;7.32;;;;;;;16.67;100.00;102361.78;6112725;19;20002;-78
2023/10/08 01:08:06;;;;;;;15.20;6.10;;;;;;;16.57;100.00;102355.13;6103006;19;20013;-78
2023/10/08 01:10:19;;;;;;;14.90;6.57;;;;;;;16.59;100.00;102358.59;6111812;19;20487;-80
2023/10/08 01:12:29;;;;;;;19.40;6.38;;;;;;;16.58;100.00;102359.50;6110887;19;20014;-78
2023/10/08 01:14:42;;;;;;;20.05;6.05;;;;;;;16.62;100.00;102361.13;6097525;19;20032;-76
2023/10/08 01:16:52;;;;;;;24.90;6.22;;;;;;;16.62;100.00;102362.91;6111587;19;20006;-78
2023/10/08 01:19:12;;;;;;;16.42;6.22;;;;;;;16.56;100.00;102364.03;6113577;19;20073;-79
2023/10/08 01:23:54;;;;;;;18.70;6.57;;;;;;;16.57;100.00;102364.91;6093690;19;20562;-75
2023/10/08 01:28:37;;;;;;;21.17;7.28;;;;;;;16.55;100.00;102338.41;6102785;19;20392;-76
2023/10/08 01:30:47;;;;;;;21.63;7.18;;;;;;;16.58;100.00;102346.22;6094281;19;20015;-74
2023/10/08 01:33:08;;;;;;;24.70;8.48;;;;;;;16.58;100.00;102350.69;6083752;19;20015;-76
2023/10/08 01:35:26;;;;;;;28.33;7.70;;;;;;;16.59;100.00;102350.63;6085048;19;20007;-78
2023/10/08 01:37:40;;;;;;;16.50;6.78;;;;;;;16.57;100.00;102344.53;6074132;19;20025;-75
2023/10/08 01:39:53;;;;;;;17.70;6.93;;;;;;;16.59;100.00;102355.94;6078979;19;20573;-74
2023/10/08 01:42:15;;;;;;;18.92;6.80;;;;;;;16.61;100.00;102362.06;6095581;19;20031;-75
2023/10/08 01:44:21;;;;;;;26.15;7.38;;;;;;;16.67;100.00;102366.25;6098394;19;20015;-78
2023/10/08 01:46:32;;;;;;;18.63;7.22;;;;;;;16.62;100.00;102363.78;6105040;19;20013;-79
2023/10/08 01:48:39;;;;;;;18.00;7.13;;;;;;;16.60;100.00;102365.63;6104697;19;20011;-78
2023/10/08 01:51:11;;;;;;;36.40;8.00;;;;;;;16.62;100.00;102365.56;6104913;19;20387;-78
2023/10/08 01:53:37;;;;;;;24.30;7.45;;;;;;;16.72;100.00;102380.19;6098343;19;20019;-75
2023/10/08 01:55:52;;;;;;;25.83;7.70;;;;;;;16.72;100.00;102388.16;6099068;19;20022;-75
2023/10/08 01:58:04;;;;;;;21.38;7.07;;;;;;;16.73;100.00;102403.13;6074807;19;20006;-76
2023/10/08 02:00:14;;;;;;;21.98;7.72;;;;;;;16.78;100.00;102405.66;6096888;19;19999;-78
2023/10/08 02:02:20;;;;;;;24.45;7.80;;;;;;;16.83;100.00;102398.34;6092984;19;20003;-76
2023/10/08 02:04:25;;;;;;;22.20;6.93;;;;;;;16.89;100.00;102403.41;6080358;19;20040;-78
2023/10/08 02:06:34;;;;;;;26.33;8.48;;;;;;;16.90;100.00;102405.09;6102106;19;20375;-78
2023/10/08 02:08:50;;;;;;;15.50;6.60;;;;;;;16.87;100.00;102403.44;6086465;19;20011;-75
2023/10/08 02:11:02;;;;;;;24.73;7.85;;;;;;;16.94;100.00;102396.09;6099470;19;20487;-75
2023/10/08 02:13:21;;;;;;;19.05;7.05;;;;;;;16.92;100.00;102400.59;6080739;19;20350;-75
2023/10/08 02:15:31;;;;;;;24.33;7.18;;;;;;;16.88;100.00;102399.88;6089633;19;20015;-76
2023/10/08 02:17:43;;;;;;;19.50;7.85;;;;;;;16.89;100.00;102384.81;6090321;19;20031;-79
2023/10/08 02:19:49;;;;;;;22.25;8.02;;;;;;;16.83;100.00;102387.72;6105100;19;20019;-78
2023/10/08 02:21:58;;;;;;;21.17;7.57;;;;;;;16.82;100.00;102386.84;6099749;19;20002;-78
2023/10/08 02:24:04;;;;;;;23.42;7.28;;;;;;;16.79;100.00;102386.97;6101902;19;20006;-78
2023/10/08 02:26:16;;;;;;;21.75;8.23;;;;;;;16.76;100.00;102381.78;6102077;19;20010;-80
2023/10/08 02:28:29;;;;;;;19.52;6.43;;;;;;;16.71;100.00;102378.44;6093786;19;20032;-80
2023/10/08 02:30:34;;;;;;;20.23;7.35;;;;;;;16.66;100.00;102372.47;6101496;19;20010;-78
2023/10/08 02:32:47;;;;;;;26.40;7.07;;;;;;;16.64;100.00;102375.19;6102542;19;20013;-79
2023/10/08 02:34:50;;;;;;;25.48;7.25;;;;;;;16.61;100.00;102375.31;6103431;19;20018;-80
2023/10/08 02:36:59;;;;;;;16.13;7.20;;;;;;;16.60;100.00;102384.19;6102704;19;20015;-79
2023/10/08 02:39:13;;;;;;;18.52;6.50;;;;;;;16.57;100.00;102384.34;6103356;19;20047;-78
2023/10/08 02:41:24;;;;;;;25.50;7.32;;;;;;;16.54;100.00;102386.25;6104342;19;20102;-78
2023/10/08 02:43:31;;;;;;;12.48;6.53;;;;;;;16.51;100.00;102396.97;6102491;19;20006;-77
2023/10/08 02:45:39;;;;;;;19.38;7.53;;;;;;;16.48;100.00;102386.47;6103653;19;20022;-80
2023/10/08 02:47:45;;;;;;;21.08;7.28;;;;;;;16.46;100.00;102391.88;6103047;19;20467;-80
2023/10/08 02:49:55;;;;;;;21.65;7.93;;;;;;;16.44;100.00;102388.41;6107011;19;20138;-79
2023/10/08 02:52:04;;;;;;;16.60;7.13;;;;;;;16.42;100.00;102390.25;6102560;19;20629;-79
2023/10/08 02:54:16;;;;;;;17.95;7.40;;;;;;;16.37;100.00;102385.13;6106402;19;20046;-78
2023/10/08 02:56:25;;;;;;;20.13;7.68;;;;;;;16.41;100.00;102391.19;6105197;19;20011;-79
2023/10/08 02:58:31;;;;;;;16.75;6.80;;;;;;;16.38;100.00;102388.66;6096945;19;20123;-78
2023/10/08 03:00:40;;;;;;;18.42;6.60;;;;;;;16.34;100.00;102387.91;6106488;19;20783;-78
2023/10/08 03:02:51;;;;;;;18.63;6.93;;;;;;;16.32;100.00;102388.88;6105720;19;20113;-78
2023/10/08 03:05:13;;;;;;;19.45;6.32;;;;;;;16.27;100.00;102389.06;6105402;19;20017;-77
2023/10/08 03:07:31;;;;;;;15.82;6.60;;;;;;;16.26;100.00;102387.34;6081539;19;20708;-76
2023/10/08 03:09:42;;;;;;;14.90;6.57;;;;;;;16.24;100.00;102389.19;6091710;19;20003;-76
2023/10/08 03:11:54;;;;;;;16.95;7.18;;;;;;;16.24;100.00;102394.50;6107270;19;20003;-78
2023/10/08 03:14:14;;;;;;;17.35;6.63;;;;;;;16.23;100.00;102388.34;6109647;19;20030;-80
2023/10/08 03:16:34;;;;;;;15.68;7.07;;;;;;;16.27;100.00;102380.25;6097425;19;20007;-80
2023/10/08 03:18:50;;;;;;;16.92;6.38;;;;;;;16.22;100.00;102381.31;6106399;19;20321;-80
2023/10/08 03:21:03;;;;;;;17.63;7.03;;;;;;;16.22;100.00;102389.28;6109333;19;20007;-80
2023/10/08 03:23:12;;;;;;;19.48;7.20;;;;;;;16.16;100.00;102384.19;6041690;19;21175;-79
2023/10/08 03:25:33;;;;;;;19.65;7.50;;;;;;;16.15;100.00;102387.78;6110340;19;20357;-79
2023/10/08 03:27:45;;;;;;;20.00;7.53;;;;;;;16.14;100.00;102401.09;6109146;19;20113;-79
2023/10/08 03:29:54;;;;;;;19.35;7.13;;;;;;;16.09;100.00;102397.75;6086839;19;20015;-81
2023/10/08 03:32:19;;;;;;;19.20;6.65;;;;;;;16.06;100.00;102411.13;6107319;19;20535;-79
2023/10/08 03:34:34;;;;;;;19.83;7.32;;;;;;;16.05;100.00;102417.38;6065671;19;20504;-75
2023/10/08 03:36:44;;;;;;;18.33;7.18;;;;;;;16.03;100.00;102417.41;6106155;19;20295;-79
2023/10/08 03:38:54;;;;;;;17.77;7.57;;;;;;;16.02;100.00;102432.47;6110405;19;20455;-79
2023/10/08 03:41:03;;;;;;;17.00;6.55;;;;;;;15.99;100.00;102426.44;6107225;19;20315;-79
2023/10/08 03:43:19;;;;;;;16.88;7.80;;;;;;;15.97;100.00;102430.91;6107970;19;20085;-78
2023/10/08 03:48:03;;;;;;;14.98;6.22;;;;;;;15.91;100.00;102423.19;6115332;19;20018;-79
2023/10/08 03:50:16;;;;;;;17.35;7.32;;;;;;;15.86;100.00;102425.16;6113502;19;20011;-78
2023/10/08 03:52:43;;;;;;;18.10;8.23;;;;;;;15.88;100.00;102425.97;6107870;19;20014;-76
2023/10/08 03:55:04;;;;;;;23.08;7.43;;;;;;;15.83;100.00;102426.13;6111052;19;20467;-78
2023/10/08 03:57:14;;;;;;;18.55;7.68;;;;;;;15.82;100.00;102439.44;6081440;19;20034;-80
2023/10/08 03:59:30;;;;;;;17.50;7.88;;;;;;;15.79;100.00;102441.28;6108163;19;20050;-78
2023/10/08 04:01:46;;;;;;;17.10;7.35;;;;;;;15.77;100.00;102437.84;6081930;19;20006;-79
2023/10/08 04:04:04;;;;;;;16.50;6.93;;;;;;;15.76;100.00;102437.88;6101400;19;20014;-75
2023/10/08 04:06:24;;;;;;;18.67;6.47;;;;;;;15.72;100.00;102447.75;6094708;19;20459;-78
2023/10/08 04:13:19;;;;;;;20.70;8.30;;;;;;;15.75;100.00;102466.19;6109409;19;20023;-79
2023/10/08 04:15:27;;;;;;;20.23;7.72;;;;;;;15.78;100.00;102466.06;6112113;19;20439;-80
2023/10/08 04:17:43;;;;;;;15.60;6.38;;;;;;;15.78;100.00;102466.06;6114311;19;20090;-78
2023/10/08 04:19:51;;;;;;;21.55;7.45;;;;;;;15.79;100.00;102467.78;6112809;19;20011;-74
2023/10/08 04:22:03;;;;;;;23.42;7.90;;;;;;;15.80;100.00;102469.53;6111004;19;20003;-75
2023/10/08 04:24:14;;;;;;;18.10;7.55;;;;;;;15.87;100.00;102479.91;6110622;19;19999;-79
2023/10/08 04:26:26;;;;;;;16.80;6.82;;;;;;;15.82;100.00;102481.84;6107243;19;20013;-78
2023/10/08 04:28:37;;;;;;;21.15;8.25;;;;;;;15.85;100.00;102472.03;6107297;19;20472;-75
2023/10/08 04:31:00;;;;;;;18.67;7.50;;;;;;;15.88;100.00;102473.69;6102100;19;20002;-76
2023/10/08 04:33:14;;;;;;;20.05;7.82;;;;;;;15.84;100.00;102472.91;6107104;19;20040;-79
2023/10/08 04:35:25;;;;;;;20.35;8.07;;;;;;;15.79;100.00;102473.06;6105019;19;20106;-78
2023/10/08 04:37:40;;;;;;;18.80;7.82;;;;;;;15.75;100.00;102460.88;6102012;19;20069;-76
2023/10/08 04:39:58;;;;;;;19.90;7.75;;;;;;;15.74;100.00;102461.78;6073849;19;20010;-77
2023/10/08 04:42:10;;;;;;;20.27;7.85;;;;;;;15.73;100.00;102468.00;6107072;19;20249;-80
2023/10/08 04:44:18;;;;;;;28.63;9.25;;;;;;;15.71;100.00;102471.63;6107328;19;20932;-80
2023/10/08 04:49:05;;;;;;;20.58;7.30;;;;;;;15.61;100.00;102465.75;6093018;19;20018;-79
2023/10/08 04:51:12;;;;;;;19.60;8.40;;;;;;;15.62;100.00;102464.84;6107355;19;20010;-79
2023/10/08 04:53:31;;;;;;;16.85;7.72;;;;;;;15.60;100.00;102469.34;6097615;19;20009;-76
2023/10/08 04:55:48;;;;;;;22.20;8.63;;;;;;;15.60;100.00;102487.88;6095957;19;20114;-75
2023/10/08 04:57:59;;;;;;;18.55;8.32;;;;;;;15.61;100.00;102489.59;6097015;19;20010;-79
2023/10/08 05:00:15;;;;;;;24.60;7.95;;;;;;;15.59;100.00;102491.47;6103780;19;20010;-80
2023/10/08 05:02:20;;;;;;;17.60;7.35;;;;;;;15.55;100.00;102492.47;6101825;19;20682;-78
2023/10/08 05:04:26;;;;;;;16.70;7.68;;;;;;;15.52;100.00;102480.22;6105264;19;20373;-78
2023/10/08 05:06:50;;;;;;;20.55;8.38;;;;;;;15.52;100.00;102482.00;6104977;19;20006;-78
2023/10/08 05:09:10;;;;;;;17.17;7.10;;;;;;;15.47;100.00;102478.63;6100230;19;20049;-75
2023/10/08 05:11:45;;;;;;;24.25;8.15;;;;;;;15.50;100.00;102444.09;6078492;19;20002;-75
2023/10/08 05:14:05;;;;;;;17.58;7.68;;;;;;;15.50;100.00;102444.09;6099443;19;20353;-75
2023/10/08 05:16:35;;;;;;;16.40;7.15;;;;;;;15.49;100.00;102459.13;6098473;19;20023;-74
2023/10/08 05:21:25;;;;;;;23.15;8.57;;;;;;;15.51;100.00;102475.84;6073543;19;20016;-78
2023/10/08 05:23:53;;;;;;;19.50;8.23;;;;;;;15.47;100.00;102483.94;6104832;19;20448;-77
2023/10/08 05:26:08;;;;;;;22.00;7.28;;;;;;;15.44;100.00;102476.97;6106205;19;20006;-75
2023/10/08 05:28:26;;;;;;;23.52;7.72;;;;;;;15.40;100.00;102487.72;6096925;19;20014;-76
2023/10/08 05:30:41;;;;;;;20.38;8.02;;;;;;;15.39;100.00;102488.63;6080812;19;20006;-75
2023/10/08 05:37:42;;;;;;;22.88;8.52;;;;;;;15.27;100.00;102464.31;6101504;19;20006;-79
2023/10/08 05:39:55;;;;;;;24.05;7.95;;;;;;;15.27;100.00;102474.00;6102399;19;20042;-76
2023/10/08 05:42:20;;;;;;;21.90;9.40;;;;;;;15.31;100.00;102470.34;6102280;19;20114;-76
2023/10/08 05:44:39;;;;;;;20.27;7.40;;;;;;;15.32;100.00;102466.78;6102808;19;20062;-76
2023/10/08 05:52:25;;;;;;;25.30;7.85;;;;;;;15.56;100.00;102478.31;6083459;19;20015;-77
2023/10/08 05:54:36;;;;;;;20.17;8.50;;;;;;;15.53;100.00;102481.06;6103805;19;20006;-78
2023/10/08 05:57:05;;;;;;;25.95;8.30;;;;;;;15.46;100.00;102475.13;6101817;19;20007;-78
2023/10/08 05:59:27;;;;;;;19.40;8.07;;;;;;;15.46;100.00;102484.88;6092562;19;20018;-78
2023/10/08 06:01:41;;;;;;;21.45;7.35;;;;;;;15.46;100.00;102488.38;6108214;19;20014;-80
2023/10/08 06:04:00;;;;;;;20.88;7.00;;;;;;;15.43;100.00;102488.50;6104533;19;20061;-77
2023/10/08 06:08:49;;;;;;;18.00;6.90;;;;;;;15.48;100.00;102514.81;6100387;19;20018;-74
2023/10/08 06:11:17;;;;;;;22.17;6.18;;;;;;;15.42;100.00;102520.31;6098028;19;20056;-79
2023/10/08 06:16:05;;;;;;;20.58;5.28;;;;;;;15.35;100.00;102519.69;6075427;19;20018;-78
2023/10/08 06:18:08;;;;;;;17.10;5.18;;;;;;;15.40;100.00;102532.75;6104857;19;20011;-78
2023/10/08 06:20:41;;;;;;;;;;;;;;;;;;;;;
2023/10/08 06:23:17;;;;;;;16.05;4.75;;;;;;;15.25;100.00;102526.19;6086365;19;20491;-76
2023/10/08 06:27:57;;;;;;;11.50;4.32;;;;;;;15.24;100.00;102542.97;6084447;19;20533;-75
2023/10/08 06:30:04;;;;;;;14.73;4.43;;;;;;;15.26;100.00;102542.00;6104951;19;20127;-78
2023/10/08 06:32:18;;;;;;;17.48;5.22;;;;;;;15.22;100.00;102544.81;6109867;19;20006;-79
2023/10/08 06:34:31;;;;;;;11.00;3.92;;;;;;;15.23;100.00;102549.22;6110106;19;20014;-78
2023/10/08 06:39:04;;;;;;;14.75;4.63;;;;;;;15.24;100.00;102549.13;6084342;19;20711;-75
2023/10/08 06:41:17;;;;;;;19.42;5.30;;;;;;;15.19;100.00;102555.50;6096360;19;20453;-75
2023/10/08 06:43:36;;;;;;;16.35;4.57;;;;;;;15.18;100.00;102543.19;6101405;19;20709;-78
2023/10/08 06:45:57;;;;;;;12.57;4.88;;;;;;;15.16;100.00;102543.22;6108428;19;20491;-77
2023/10/08 06:48:06;;;;;;;19.05;5.45;;;;;;;15.22;100.00;102545.69;6086284;19;20407;-77
2023/10/08 06:50:15;;;;;;;16.83;5.40;;;;;;;15.24;100.00;102556.22;6079591;19;20111;-77
2023/10/08 06:52:20;;;;;;;14.90;5.53;;;;;;;15.27;100.00;102564.06;6106012;19;20012;-78
2023/10/08 06:54:53;;;;;;;14.32;6.03;;;;;;;15.25;100.00;102573.88;6110073;19;20021;-76
2023/10/08 06:57:13;;;;;;;19.92;6.65;;;;;;;15.23;100.00;102573.91;6078853;19;20027;-77
2023/10/08 06:59:23;;;;;;;18.67;6.20;;;;;;;15.20;100.00;102578.44;6103573;19;20006;-78
2023/10/08 07:01:38;;;;;;;21.80;7.45;;;;;;;15.27;100.00;102574.66;6113100;19;20021;-76
2023/10/08 07:04:03;;;;;;;16.90;5.85;;;;;;;15.27;100.00;102574.66;6092831;19;19999;-74
2023/10/08 07:06:25;;;;;;;23.98;8.23;;;;;;;15.26;100.00;102573.81;6100288;19;20271;-75
2023/10/08 07:08:43;;;;;;;24.17;6.47;;;;;;;15.23;100.00;102578.34;6115698;19;20044;-77
2023/10/08 07:10:58;;;;;;;21.33;7.60;;;;;;;15.20;100.00;102583.75;6113552;19;20047;-79
2023/10/08 07:13:11;;;;;;;24.77;7.15;;;;;;;15.18;100.00;102575.84;6113780;19;20019;-79
2023/10/08 07:15:26;;;;;;;22.80;7.50;;;;;;;15.21;100.00;102575.72;6091021;19;20018;-79
2023/10/08 07:17:40;;;;;;;25.70;7.15;;;;;;;15.13;100.00;102580.41;6111818;19;20064;-78
2023/10/08 07:19:50;;;;;;;24.60;6.55;;;;;;;15.13;100.00;102589.22;6107700;19;20034;-76
2023/10/08 07:24:50;;;;;;;24.33;7.53;;;;;;;15.12;100.00;102597.22;6090533;19;20067;-74
2023/10/08 07:27:08;;;;;;;21.58;7.47;;;;;;;14.99;100.00;102598.53;6110589;19;20021;-76
2023/10/08 07:29:21;;;;;;;21.65;7.13;;;;;;;14.95;100.00;102607.47;6112923;19;20094;-77
2023/10/08 07:31:28;;;;;;;26.30;7.03;;;;;;;14.95;100.00;102610.09;6111267;19;20010;-78
2023/10/08 07:33:36;;;;;;;20.38;6.03;;;;;;;14.86;100.00;102614.78;6113377;19;20046;-78
2023/10/08 07:35:42;;;;;;;22.50;6.68;;;;;;;14.78;100.00;102614.13;6112615;19;20114;-78
2023/10/08 07:37:50;;;;;;;23.35;6.18;;;;;;;14.81;100.00;102614.03;6107189;19;20002;-78
2023/10/08 07:39:58;;;;;;;20.73;6.88;;;;;;;14.79;100.00;102622.94;6108057;19;20006;-77
2023/10/08 07:42:05;;;;;;;23.77;5.65;;;;;;;14.80;100.00;102622.03;6108510;19;20035;-78
2023/10/08 07:44:13;;;;;;;20.63;5.55;;;;;;;14.67;100.00;102621.53;6105847;19;20007;-75
2023/10/08 07:46:26;;;;;;;20.48;6.25;;;;;;;14.70;100.00;102624.09;6097867;19;20104;-78
2023/10/08 07:48:32;;;;;;;19.05;4.72;;;;;;;14.65;100.00;102631.28;6082880;19;20019;-77
2023/10/08 07:50:37;;;;;;;21.67;6.10;;;;;;;14.62;100.00;102631.38;6103311;19;20011;-78
2023/10/08 07:52:47;;;;;;;19.55;5.40;;;;;;;14.62;100.00;102640.19;6099565;19;20017;-76
2023/10/08 07:54:55;;;;;;;17.30;5.63;;;;;;;14.67;100.00;102634.75;6103882;19;20349;-79
2023/10/08 07:57:08;;;;;;;22.77;6.28;;;;;;;14.70;100.00;102635.53;6100773;19;20011;-80
2023/10/08 07:59:22;;;;;;;20.88;5.43;;;;;;;14.74;100.00;102632.78;6104622;19;20010;-77
2023/10/08 08:01:34;;;;;;;18.52;5.60;;;;;;;14.76;100.00;102626.53;6099737;19;20372;-75
2023/10/08 08:03:51;;;;;;;14.70;4.90;;;;;;;14.89;100.00;102633.19;6038492;19;20367;-75
2023/10/08 08:06:00;;;;;;;20.38;5.95;;;;;;;14.91;100.00;102635.81;6112678;19;20363;-78
2023/10/08 08:08:10;;;;;;;15.05;5.30;;;;;;;14.98;100.00;102639.13;6106267;19;20014;-77
2023/10/08 08:10:23;;;;;;;12.90;5.10;;;;;;;15.01;100.00;102639.91;6110030;19;20014;-76
2023/10/08 08:12:35;;;;;;;19.48;5.20;;;;;;;15.06;100.00;102642.41;6085171;19;20007;-75
2023/10/08 08:15:14;;;;;;;21.85;5.68;;;;;;;14.98;100.00;102639.13;6097880;19;20115;-75
2023/10/08 08:17:37;;;;;;;16.77;5.20;;;;;;;15.10;100.00;102636.97;6078602;19;20517;-77
2023/10/08 08:20:06;;;;;;;15.40;6.10;;;;;;;15.18;100.00;102636.75;6067563;19;20006;-75
2023/10/08 08:22:21;;;;;;;19.92;6.20;;;;;;;15.21;100.00;102644.59;6106060;19;20676;-76
2023/10/08 08:24:36;;;;;;;21.20;5.43;;;;;;;15.29;100.00;102645.22;6099845;19;20019;-76
2023/10/08 08:27:01;;;;;;;18.90;4.90;;;;;;;15.34;100.00;102650.38;6099579;19;20010;-78
2023/10/08 08:29:15;;;;;;;15.88;5.05;;;;;;;15.29;100.00;102658.44;6110244;19;20019;-79
2023/10/08 08:31:22;;;;;;;17.02;6.88;;;;;;;15.39;100.00;102660.81;6109438;19;20047;-78
2023/10/08 08:34:02;;;;;;;18.48;5.70;;;;;;;15.37;100.00;102664.38;6082074;19;20090;-77
2023/10/08 08:36:17;;;;;;;18.00;4.97;;;;;;;15.39;100.00;102671.44;6086202;19;20010;-80
2023/10/08 08:38:54;;;;;;;19.25;6.47;;;;;;;15.45;100.00;102669.44;6103327;19;20014;-76
2023/10/08 08:41:07;;;;;;;24.35;6.00;;;;;;;15.43;100.00;102662.44;6048923;19;20023;-80
2023/10/08 08:43:16;;;;;;;21.23;6.22;;;;;;;15.51;100.00;102671.03;6103724;19;20035;-79
2023/10/08 08:45:25;;;;;;;17.20;5.53;;;;;;;15.45;100.00;102664.13;6084601;19;20011;-80
2023/10/08 08:47:31;;;;;;;17.42;5.32;;;;;;;15.51;100.00;102669.25;6106802;19;20459;-80
2023/10/08 08:49:45;;;;;;;18.23;5.75;;;;;;;15.45;100.00;102680.03;6105640;19;20042;-77
2023/10/08 08:51:56;;;;;;;18.83;5.35;;;;;;;15.39;100.00;102677.59;6067872;19;20033;-79
2023/10/08 08:54:06;;;;;;;16.63;5.65;;;;;;;15.53;100.00;102675.38;6098108;19;20073;-80
2023/10/08 08:56:15;;;;;;;18.95;5.65;;;;;;;15.43;100.00;102670.41;6107219;19;20011;-79
2023/10/08 08:58:19;;;;;;;18.70;6.15;;;;;;;15.48;100.00;102673.78;6107055;19;20044;-80
2023/10/08 09:00:32;;;;;;;17.85;6.20;;;;;;;15.49;100.00;102675.53;6102820;19;20002;-78
2023/10/08 09:02:39;;;;;;;26.15;6.97;;;;;;;15.58;100.00;102680.50;6097102;19;20006;-80
2023/10/08 09:04:53;;;;;;;17.33;6.22;;;;;;;15.57;100.00;102676.13;6079126;19;20743;-78
2023/10/08 09:07:04;;;;;;;19.13;7.45;;;;;;;15.47;100.00;102675.56;6103579;19;20010;-78
2023/10/08 09:09:21;;;;;;;18.23;5.85;;;;;;;15.53;100.00;102671.84;6082689;19;20003;-77
2023/10/08 09:11:29;;;;;;;22.92;6.40;;;;;;;15.51;100.00;102663.09;6100723;19;20019;-77
2023/10/08 09:13:46;;;;;;;21.52;5.93;;;;;;;15.38;100.00;102662.63;6099853;19;20007;-77
2023/10/08 09:16:19;;;;;;;20.67;6.47;;;;;;;15.49;100.00;102660.47;6102288;19;20007;-77
2023/10/08 09:18:41;;;;;;;18.17;7.40;;;;;;;15.50;100.00;102667.50;6091475;19;20036;-75
2023/10/08 09:21:14;;;;;;;25.92;8.35;;;;;;;15.52;100.00;102670.13;6091824;19;20002;-75
2023/10/08 09:23:28;;;;;;;21.85;8.02;;;;;;;15.47;100.00;102661.44;6085466;19;20035;-76
2023/10/08 09:25:38;;;;;;;22.85;7.78;;;;;;;15.48;100.00;102665.81;6089379;19;20002;-77
2023/10/08 09:27:48;;;;;;;25.73;7.63;;;;;;;15.57;100.00;102660.25;6102817;19;20017;-75
2023/10/08 09:29:59;;;;;;;19.73;6.32;;;;;;;15.61;100.00;102656.56;6090500;19;20033;-76
2023/10/08 09:32:23;;;;;;;16.70;6.15;;;;;;;15.64;100.00;102652.94;6057237;19;20002;-75
2023/10/08 09:34:32;;;;;;;15.05;5.70;;;;;;;15.77;100.00;102657.84;6099603;19;20047;-78
2023/10/08 09:36:42;;;;;;;20.33;6.00;;;;;;;15.85;100.00;102664.66;6104999;19;20066;-79
2023/10/08 09:38:56;;;;;;;20.42;5.20;;;;;;;15.84;100.00;102666.44;6105346;19;20015;-80
2023/10/08 09:41:03;;;;;;;21.00;6.13;;;;;;;15.80;100.00;102675.44;6101901;19;20396;-77
2023/10/08 09:43:12;;;;;;;17.15;6.32;;;;;;;15.94;100.00;102667.00;6104398;19;20022;-78
2023/10/08 09:45:21;;;;;;;20.83;5.90;;;;;;;16.07;100.00;102665.66;6082520;19;20007;-75
2023/10/08 09:47:40;;;;;;;20.73;4.72;;;;;;;16.15;100.00;102655.66;6075302;19;20030;-76
2023/10/08 09:50:07;;;;;;;24.90;4.85;;;;;;;16.13;100.00;102656.63;6083338;19;20022;-77
2023/10/08 09:52:25;;;;;;;17.33;4.68;;;;;;;16.30;100.00;102654.25;6102577;19;20114;-76
2023/10/08 09:54:39;;;;;;;17.42;4.35;;;;;;;16.28;100.00;102661.41;6096482;19;20456;-75
2023/10/08 09:56:49;;;;;;;21.45;4.35;;;;;;;16.34;100.00;102657.66;6106693;19;20356;-78
2023/10/08 09:59:09;;;;;;;16.15;4.38;;;;;;;16.34;100.00;102660.31;6105834;19;20007;-78
2023/10/08 10:01:12;;;;;;;16.90;3.97;;;;;;;16.35;100.00;102662.94;6115731;19;20003;-79
2023/10/08 10:03:22;;;;;;;16.05;4.03;;;;;;;16.38;100.00;102661.94;6118213;19;20028;-79
2023/10/08 10:05:32;;;;;;;16.10;4.68;;;;;;;16.42;100.00;102664.41;6115833;19;20562;-78
2023/10/08 10:07:44;;;;;;;12.43;3.63;;;;;;;16.48;100.00;102652.72;6119468;19;20039;-79
2023/10/08 10:09:53;;;;;;;13.35;4.38;;;;;;;16.40;100.00;102660.09;6119244;19;20364;-79
2023/10/08 10:12:01;;;;;;;17.15;4.47;;;;;;;16.43;100.00;102652.91;6115519;19;20078;-79
2023/10/08 10:14:09;;;;;;;16.98;4.20;;;;;;;16.53;100.00;102661.38;6112940;19;20007;-76
2023/10/08 10:16:21;;;;;;;13.07;4.05;;;;;;;16.67;100.00;102664.41;6105095;19;20043;-77
2023/10/08 10:18:31;;;;;;;12.50;3.95;;;;;;;16.73;100.00;102665.09;6116662;19;20018;-80
2023/10/08 10:20:49;;;;;;;28.10;7.97;;;;;;;16.56;100.00;102658.63;6116226;19;20002;-80
2023/10/08 10:23:43;;;;;;;18.15;5.25;;;;;;;16.79;100.00;102667.53;6108138;19;20014;-77
2023/10/08 10:26:01;;;;;;;15.20;4.43;;;;;;;16.86;100.00;102671.72;6110803;19;20349;-77
2023/10/08 10:28:29;;;;;;;23.33;6.80;;;;;;;16.79;100.00;102672.84;6117430;19;20014;-80
2023/10/08 10:30:39;;;;;;;23.30;5.97;;;;;;;16.91;100.00;102672.41;6115218;19;20043;-78
2023/10/08 10:32:59;;;;;;;19.92;5.70;;;;;;;16.84;100.00;102673.56;6112874;19;20014;-75
2023/10/08 10:35:11;;;;;;;;;;;;;;;16.97;100.00;102676.63;6115803;19;20398;-76
2023/10/08 10:37:24;;;;;;;20.48;6.45;;;;;;;17.06;100.00;102676.25;6112448;19;19922;-75
2023/10/08 10:39:37;;;;;;;11.73;5.50;;;;;;;17.00;100.00;102674.69;6115841;19;20303;-78
2023/10/08 10:41:57;;;;;;;22.67;5.53;;;;;;;17.03;100.00;102673.72;6115063;19;20010;-76
2023/10/08 10:44:13;;;;;;;19.13;5.43;;;;;;;17.17;100.00;102681.13;6075299;19;20634;-75
2023/10/08 10:46:31;;;;;;;15.65;5.32;;;;;;;17.14;100.00;102676.84;6077126;19;20010;-76
2023/10/08 10:48:34;;;;;;;20.90;5.25;;;;;;;17.25;100.00;102677.28;6100078;19;20542;-76
2023/10/08 10:51:08;;;;;;;16.65;5.50;;;;;;;17.41;100.00;102671.38;6101341;19;20498;-75
2023/10/08 10:53:12;;;;;;;19.60;5.28;;;;;;;17.43;100.00;102670.38;6074386;19;20011;-75